createdAt,value
2022-12-25T00:01:14.628Z,100656.59
2022-12-25T00:03:41.917Z,100674.97
2022-12-25T00:06:09.036Z,100677.59
2022-12-25T00:08:37.256Z,100695.97
2022-12-25T00:11:07.443Z,100675.75
2022-12-25T00:13:34.734Z,100698.59
2022-12-25T00:16:07.065Z,100710.00
2022-12-25T00:18:34.049Z,100716.06
2022-12-25T00:21:03.726Z,100716.81
2022-12-25T00:23:31.208Z,100716.03
2022-12-25T00:25:58.520Z,100728.28
2022-12-25T00:28:25.920Z,100735.34
2022-12-25T00:30:52.963Z,100734.47
2022-12-25T00:33:19.972Z,100745.88
2022-12-25T00:36:01.056Z,100737.16
2022-12-25T00:38:28.495Z,100732.69
2022-12-25T00:40:55.451Z,100730.00
2022-12-25T00:43:22.323Z,100731.00
2022-12-25T00:45:59.919Z,100732.78
2022-12-25T00:48:27.949Z,100735.41
2022-12-25T00:51:00.135Z,100729.22
2022-12-25T00:53:28.323Z,100714.28
2022-12-25T00:55:58.289Z,100722.19
2022-12-25T00:58:26.943Z,100709.81
2022-12-25T01:00:54.379Z,100719.47
2022-12-25T01:03:21.376Z,100728.28
2022-12-25T01:06:03.412Z,100728.31
2022-12-25T01:08:33.279Z,100731.94
2022-12-25T01:11:03.895Z,100724.88
2022-12-25T01:13:31.955Z,100723.16
2022-12-25T01:15:58.874Z,100735.44
2022-12-25T01:18:26.081Z,100733.66
2022-12-25T01:20:53.027Z,100738.00
2022-12-25T01:23:19.913Z,100741.44
2022-12-25T01:25:46.788Z,100739.59
2022-12-25T01:28:13.920Z,100737.75
2022-12-25T01:30:47.458Z,100737.16
2022-12-25T01:33:14.312Z,100734.56
2022-12-25T01:35:42.065Z,100731.03
2022-12-25T01:38:09.266Z,100731.91
2022-12-25T01:40:36.168Z,100735.44
2022-12-25T01:43:03.016Z,100738.94
2022-12-25T01:45:55.413Z,100744.19
2022-12-25T01:48:30.767Z,100738.78
2022-12-25T01:51:10.016Z,100738.72
2022-12-25T01:53:37.028Z,100743.84
2022-12-25T01:56:07.191Z,100743.97
2022-12-25T01:58:35.374Z,100743.00
2022-12-25T02:01:05.615Z,100745.63
2022-12-25T02:03:32.755Z,100750.03
2022-12-25T02:06:01.410Z,100752.63
2022-12-25T02:08:28.674Z,100748.34
2022-12-25T02:10:55.600Z,100750.88
2022-12-25T02:13:22.768Z,100762.25
2022-12-25T02:15:55.820Z,100758.00
2022-12-25T02:18:39.174Z,100764.09
2022-12-25T02:21:24.903Z,100772.53
2022-12-25T02:24:16.599Z,100774.25
2022-12-25T02:27:00.649Z,100776.75
2022-12-25T02:29:36.339Z,100766.28
2022-12-25T02:32:15.202Z,100764.56
2022-12-25T02:34:51.308Z,100764.72
2022-12-25T02:37:43.220Z,100765.66
2022-12-25T02:40:20.874Z,100775.00
2022-12-25T02:43:19.831Z,100764.47
2022-12-25T02:46:16.047Z,100781.72
2022-12-25T02:49:10.994Z,100774.66
2022-12-25T02:52:00.523Z,100772.84
2022-12-25T02:54:57.249Z,100782.63
2022-12-25T02:57:51.034Z,100779.94
2022-12-25T03:00:36.497Z,100793.19
2022-12-25T03:03:26.145Z,100799.50
2022-12-25T03:06:15.810Z,100799.28
2022-12-25T03:08:46.181Z,100802.19
2022-12-25T03:11:31.590Z,100803.03
2022-12-25T03:14:21.294Z,100802.34
2022-12-25T03:16:50.888Z,100806.63
2022-12-25T03:19:37.498Z,100796.28
2022-12-25T03:22:25.583Z,100799.63
2022-12-25T03:25:11.004Z,100797.72
2022-12-25T03:27:40.857Z,100801.22
2022-12-25T03:30:26.806Z,100801.97
2022-12-25T03:33:23.598Z,100792.59
2022-12-25T03:36:28.078Z,100801.47
2022-12-25T03:39:30.354Z,100803.00
2022-12-25T03:42:20.526Z,100813.44
2022-12-25T03:45:26.522Z,100829.06
2022-12-25T03:48:19.188Z,100839.50
2022-12-25T03:51:14.717Z,100830.91
2022-12-25T03:54:04.516Z,100833.41
2022-12-25T03:56:51.506Z,100827.34
2022-12-25T03:59:41.050Z,100833.53
2022-12-25T04:02:27.185Z,100827.47
2022-12-25T04:05:13.179Z,100841.34
2022-12-25T04:07:58.620Z,100840.41
2022-12-25T04:10:44.154Z,100850.03
2022-12-25T04:13:29.682Z,100856.06
2022-12-25T04:16:15.330Z,100858.06
2022-12-25T04:19:00.612Z,100867.66
2022-12-25T04:21:45.935Z,100873.81
2022-12-25T04:24:31.555Z,100872.84
2022-12-25T04:27:16.983Z,100875.47
2022-12-25T04:30:02.787Z,100888.75
2022-12-25T04:32:48.455Z,100896.75
2022-12-25T04:35:34.070Z,100897.31
2022-12-25T04:38:00.970Z,100911.63
2022-12-25T04:40:27.908Z,100920.56
2022-12-25T04:42:54.897Z,100909.69
2022-12-25T04:45:21.850Z,100907.94
2022-12-25T04:47:48.831Z,100915.91
2022-12-25T04:50:15.677Z,100919.06
2022-12-25T04:52:42.676Z,100925.91
2022-12-25T04:55:11.787Z,100926.91
2022-12-25T04:57:39.904Z,100927.00
2022-12-25T05:00:07.437Z,100926.47
2022-12-25T05:02:34.901Z,100930.28
2022-12-25T05:05:01.936Z,100945.06
2022-12-25T05:07:28.842Z,100949.78
2022-12-25T05:09:55.856Z,100943.41
2022-12-25T05:12:22.997Z,100942.72
2022-12-25T05:14:50.099Z,100957.38
2022-12-25T05:17:17.094Z,100951.00
2022-12-25T05:19:44.112Z,100959.66
2022-12-25T05:22:11.006Z,100955.13
2022-12-25T05:24:37.991Z,100958.78
2022-12-25T05:27:05.008Z,100960.63
2022-12-25T05:29:31.936Z,100965.41
2022-12-25T05:31:58.862Z,100972.84
2022-12-25T05:34:25.846Z,100974.38
2022-12-25T05:36:52.823Z,100974.91
2022-12-25T05:39:19.874Z,100967.28
2022-12-25T05:41:46.863Z,100977.38
2022-12-25T05:44:14.219Z,100982.34
2022-12-25T05:46:41.192Z,100984.47
2022-12-25T05:49:08.395Z,100994.19
2022-12-25T05:51:35.266Z,100987.97
2022-12-25T05:54:02.395Z,100990.50
2022-12-25T05:56:29.285Z,100991.22
2022-12-25T05:58:56.538Z,100993.69
2022-12-25T06:01:26.915Z,100995.31
2022-12-25T06:03:54.120Z,100997.22
2022-12-25T06:06:21.100Z,101003.81
2022-12-25T06:08:47.953Z,101001.53
2022-12-25T06:11:15.937Z,101012.19
2022-12-25T06:13:42.889Z,101020.09
2022-12-25T06:16:12.183Z,101024.63
2022-12-25T06:18:41.695Z,101033.38
2022-12-25T06:21:10.461Z,101037.06
2022-12-25T06:23:39.225Z,101038.84
2022-12-25T06:26:08.321Z,101042.31
2022-12-25T06:28:35.611Z,101043.25
2022-12-25T06:31:09.608Z,101042.38
2022-12-25T06:33:36.769Z,101048.38
2022-12-25T06:36:12.539Z,101052.91
2022-12-25T06:38:39.599Z,101051.81
2022-12-25T06:41:09.170Z,101055.16
2022-12-25T06:43:37.052Z,101056.06
2022-12-25T06:46:10.023Z,101066.06
2022-12-25T06:48:38.229Z,101068.03
2022-12-25T06:51:06.427Z,101072.06
2022-12-25T06:53:40.146Z,101066.00
2022-12-25T06:56:10.394Z,101067.34
2022-12-25T06:58:37.309Z,101071.06
2022-12-25T07:01:15.499Z,101077.19
2022-12-25T07:03:44.976Z,101072.13
2022-12-25T07:06:11.904Z,101078.16
2022-12-25T07:08:39.108Z,101079.06
2022-12-25T07:11:07.261Z,101084.59
2022-12-25T07:13:34.150Z,101102.56
2022-12-25T07:16:03.760Z,101092.59
2022-12-25T07:18:31.785Z,101094.34
2022-12-25T07:21:01.848Z,101093.78
2022-12-25T07:23:28.747Z,101088.22
2022-12-25T07:25:57.126Z,101092.09
2022-12-25T07:28:24.107Z,101090.38
2022-12-25T07:30:51.262Z,101099.09
2022-12-25T07:33:18.223Z,101104.16
2022-12-25T07:35:45.831Z,101092.25
2022-12-25T07:38:12.797Z,101093.06
2022-12-25T07:40:39.745Z,101100.66
2022-12-25T07:43:06.700Z,101110.66
2022-12-25T07:45:33.881Z,101106.31
2022-12-25T07:48:05.277Z,101113.09
2022-12-25T07:50:33.435Z,101115.88
2022-12-25T07:53:00.355Z,101113.63
2022-12-25T07:55:27.262Z,101106.16
2022-12-25T07:57:54.403Z,101111.31
2022-12-25T08:00:21.578Z,101109.13
2022-12-25T08:02:51.462Z,101116.00
2022-12-25T08:05:18.513Z,101127.56
2022-12-25T08:07:45.381Z,101129.16
2022-12-25T08:10:12.334Z,101115.91
2022-12-25T08:12:39.232Z,101125.06
2022-12-25T08:15:06.725Z,101127.03
2022-12-25T08:17:35.434Z,101120.28
2022-12-25T08:20:02.291Z,101128.66
2022-12-25T08:22:29.258Z,101130.16
2022-12-25T08:24:56.199Z,101128.94
2022-12-25T08:27:23.200Z,101131.94
2022-12-25T08:29:50.118Z,101146.44
2022-12-25T08:32:17.033Z,101154.09
2022-12-25T08:34:43.908Z,101153.97
2022-12-25T08:37:10.773Z,101150.22
2022-12-25T08:39:37.652Z,101158.66
2022-12-25T08:42:04.798Z,101145.34
2022-12-25T08:44:31.917Z,101148.84
2022-12-25T08:46:58.816Z,101142.06
2022-12-25T08:49:29.168Z,101147.06
2022-12-25T08:51:56.255Z,101145.59
2022-12-25T08:54:24.924Z,101152.13
2022-12-25T08:56:53.360Z,101150.75
2022-12-25T08:59:22.978Z,101137.88
2022-12-25T09:01:49.967Z,101131.34
2022-12-25T09:04:16.946Z,101132.63
2022-12-25T09:06:43.854Z,101135.53
2022-12-25T09:09:10.968Z,101139.09
2022-12-25T09:11:38.062Z,101138.00
2022-12-25T09:14:04.942Z,101134.53
2022-12-25T09:16:31.964Z,101135.69
2022-12-25T09:18:59.322Z,101126.06
2022-12-25T09:21:26.287Z,101134.28
2022-12-25T09:23:53.262Z,101136.28
2022-12-25T09:26:20.555Z,101137.38
2022-12-25T09:28:51.903Z,101134.69
2022-12-25T09:31:20.861Z,101134.81
2022-12-25T09:33:48.621Z,101133.22
2022-12-25T09:36:15.625Z,101138.13
2022-12-25T09:38:42.727Z,101140.69
2022-12-25T09:41:28.450Z,101125.25
2022-12-25T09:44:04.572Z,101131.44
2022-12-25T09:46:41.913Z,101127.13
2022-12-25T09:49:23.905Z,101125.03
2022-12-25T09:51:57.277Z,101123.03
2022-12-25T09:54:47.360Z,101125.72
2022-12-25T09:57:15.292Z,101128.91
2022-12-25T09:59:44.326Z,101117.94
2022-12-25T10:02:36.422Z,101117.97
2022-12-25T10:05:18.461Z,101128.25
2022-12-25T10:08:15.697Z,101119.78
2022-12-25T10:11:00.688Z,101114.44
2022-12-25T10:13:55.058Z,101116.13
2022-12-25T10:16:30.837Z,101120.91
2022-12-25T10:19:38.980Z,101113.28
2022-12-25T10:22:15.671Z,101116.25
2022-12-25T10:24:51.623Z,101119.59
2022-12-25T10:27:34.381Z,101121.59
2022-12-25T10:30:02.721Z,101125.59
2022-12-25T10:32:29.647Z,101134.34
2022-12-25T10:34:56.574Z,101142.44
2022-12-25T10:37:24.728Z,101123.63
2022-12-25T10:39:51.689Z,101127.72
2022-12-25T10:42:55.693Z,101127.41
2022-12-25T10:45:22.697Z,101133.06
2022-12-25T10:47:54.383Z,101125.28
2022-12-25T10:50:26.444Z,101127.78
2022-12-25T10:53:04.959Z,101120.69
2022-12-25T10:55:33.513Z,101132.09
2022-12-25T10:58:02.178Z,101138.97
2022-12-25T11:00:31.538Z,101134.75
2022-12-25T11:02:59.723Z,101134.63
2022-12-25T11:05:30.364Z,101129.44
2022-12-25T11:08:00.297Z,101134.13
2022-12-25T11:10:44.178Z,101142.81
2022-12-25T11:13:21.167Z,101140.16
2022-12-25T11:15:49.694Z,101131.41
2022-12-25T11:18:23.229Z,101145.06
2022-12-25T11:20:52.476Z,101136.22
2022-12-25T11:23:21.558Z,101147.34
2022-12-25T11:26:00.972Z,101142.22
2022-12-25T11:28:30.352Z,101147.38
2022-12-25T11:31:21.556Z,101155.19
2022-12-25T11:34:05.587Z,101157.84
2022-12-25T11:36:45.097Z,101156.13
2022-12-25T11:39:23.012Z,101151.91
2022-12-25T11:42:11.961Z,101165.34
2022-12-25T11:45:03.179Z,101154.41
2022-12-25T11:47:39.198Z,101157.88
2022-12-25T11:50:24.978Z,101166.84
2022-12-25T11:52:52.898Z,101167.13
2022-12-25T11:55:40.741Z,101164.22
2022-12-25T11:58:33.494Z,101174.56
2022-12-25T12:01:04.552Z,101166.91
2022-12-25T12:03:37.204Z,101175.44
2022-12-25T12:06:41.135Z,101177.06
2022-12-25T12:09:45.121Z,101179.72
2022-12-25T12:12:21.855Z,101187.47
2022-12-25T12:15:12.803Z,101186.88
2022-12-25T12:17:39.740Z,101189.91
2022-12-25T12:20:32.853Z,101184.50
2022-12-25T12:23:02.321Z,101186.75
2022-12-25T12:25:31.017Z,101199.63
2022-12-25T12:28:05.188Z,101192.06
2022-12-25T12:30:35.738Z,101206.09
2022-12-25T12:33:07.124Z,101203.72
2022-12-25T12:35:39.670Z,101207.66
2022-12-25T12:38:19.187Z,101203.34
2022-12-25T12:41:07.534Z,101199.94
2022-12-25T12:43:42.648Z,101208.53
2022-12-25T12:46:36.318Z,101197.28
2022-12-25T12:49:26.078Z,101199.06
2022-12-25T12:52:25.438Z,101200.00
2022-12-25T12:55:00.111Z,101205.13
2022-12-25T12:57:31.698Z,101213.09
2022-12-25T13:00:04.837Z,101220.41
2022-12-25T13:02:47.998Z,101225.09
2022-12-25T13:05:34.268Z,101222.06
2022-12-25T13:08:10.657Z,101233.59
2022-12-25T13:10:41.555Z,101227.34
2022-12-25T13:13:21.110Z,101237.25
2022-12-25T13:15:50.168Z,101232.97
2022-12-25T13:18:17.954Z,101249.81
2022-12-25T13:20:55.398Z,101244.97
2022-12-25T13:23:27.158Z,101258.25
2022-12-25T13:25:59.481Z,101263.88
2022-12-25T13:28:32.250Z,101279.03
2022-12-25T13:31:17.490Z,101268.00
2022-12-25T13:33:58.042Z,101268.75
2022-12-25T13:36:27.142Z,101272.47
2022-12-25T13:38:56.913Z,101283.59
2022-12-25T13:41:47.955Z,101286.22
2022-12-25T13:44:24.495Z,101279.03
2022-12-25T13:46:51.855Z,101282.78
2022-12-25T13:49:22.160Z,101283.00
2022-12-25T13:51:49.843Z,101281.78
2022-12-25T13:54:18.201Z,101280.25
2022-12-25T13:56:51.118Z,101290.97
2022-12-25T13:59:21.230Z,101287.53
2022-12-25T14:01:50.045Z,101290.28
2022-12-25T14:04:23.263Z,101308.94
2022-12-25T14:06:51.776Z,101300.19
2022-12-25T14:09:19.482Z,101309.75
2022-12-25T14:11:51.421Z,101317.28
2022-12-25T14:14:22.429Z,101317.59
2022-12-25T14:16:53.557Z,101322.25
2022-12-25T14:19:31.898Z,101318.72
2022-12-25T14:22:21.283Z,101323.97
2022-12-25T14:24:49.225Z,101336.25
2022-12-25T14:27:30.457Z,101343.44
2022-12-25T14:29:59.971Z,101342.34
2022-12-25T14:32:30.618Z,101349.41
2022-12-25T14:35:03.486Z,101345.38
2022-12-25T14:37:33.383Z,101358.03
2022-12-25T14:40:02.992Z,101356.63
2022-12-25T14:42:35.138Z,101354.13
2022-12-25T14:45:05.136Z,101357.72
2022-12-25T14:47:39.433Z,101358.69
2022-12-25T14:50:37.447Z,101368.38
2022-12-25T14:53:04.731Z,101369.28
2022-12-25T14:55:32.264Z,101370.16
2022-12-25T14:58:04.722Z,101386.88
2022-12-25T15:00:39.003Z,101391.25
2022-12-25T15:03:24.364Z,101389.53
2022-12-25T15:06:06.462Z,101404.41
2022-12-25T15:08:35.633Z,101403.50
2022-12-25T15:11:03.557Z,101412.34
2022-12-25T15:13:31.928Z,101406.13
2022-12-25T15:16:22.678Z,101411.41
2022-12-25T15:18:51.016Z,101415.00
2022-12-25T15:21:25.906Z,101407.94
2022-12-25T15:23:54.297Z,101414.03
2022-12-25T15:26:21.670Z,101417.53
2022-12-25T15:28:48.896Z,101418.38
2022-12-25T15:31:25.045Z,101432.38
2022-12-25T15:33:56.921Z,101436.00
2022-12-25T15:36:24.919Z,101439.50
2022-12-25T15:38:52.211Z,101441.78
2022-12-25T15:41:48.886Z,101436.72
2022-12-25T15:44:16.357Z,101444.69
2022-12-25T15:46:43.585Z,101443.78
2022-12-25T15:49:11.014Z,101448.31
2022-12-25T15:51:38.884Z,101453.63
2022-12-25T15:54:06.397Z,101451.81
2022-12-25T15:56:44.626Z,101452.56
2022-12-25T15:59:13.173Z,101467.59
2022-12-25T16:01:44.767Z,101458.78
2022-12-25T16:04:12.046Z,101470.56
2022-12-25T16:06:39.335Z,101475.97
2022-12-25T16:09:06.264Z,101479.38
2022-12-25T16:11:33.129Z,101485.91
2022-12-25T16:14:00.121Z,101488.63
2022-12-25T16:16:27.077Z,101493.13
2022-12-25T16:18:54.028Z,101493.16
2022-12-25T16:21:22.279Z,101487.63
2022-12-25T16:23:49.182Z,101487.69
2022-12-25T16:26:16.419Z,101487.69
2022-12-25T16:28:43.492Z,101494.78
2022-12-25T16:31:11.653Z,101501.03
2022-12-25T16:33:38.606Z,101494.19
2022-12-25T16:36:05.747Z,101498.63
2022-12-25T16:38:33.931Z,101496.81
2022-12-25T16:41:01.649Z,101497.41
2022-12-25T16:43:28.862Z,101490.31
2022-12-25T16:45:57.421Z,101500.16
2022-12-25T16:48:24.360Z,101494.19
2022-12-25T16:50:51.316Z,101499.56
2022-12-25T16:53:18.202Z,101499.50
2022-12-25T16:55:45.189Z,101500.22
2022-12-25T16:58:12.155Z,101503.94
2022-12-25T17:00:41.141Z,101521.28
2022-12-25T17:03:10.164Z,101521.63
2022-12-25T17:05:37.140Z,101532.06
2022-12-25T17:08:04.254Z,101537.81
2022-12-25T17:10:31.195Z,101536.34
2022-12-25T17:12:58.126Z,101530.34
2022-12-25T17:15:25.039Z,101533.88
2022-12-25T17:17:51.974Z,101542.63
2022-12-25T17:20:18.854Z,101546.00
2022-12-25T17:22:48.820Z,101542.44
2022-12-25T17:25:15.755Z,101560.94
2022-12-25T17:27:42.709Z,101544.97
2022-12-25T17:30:10.282Z,101548.56
2022-12-25T17:32:37.259Z,101545.13
2022-12-25T17:35:04.510Z,101548.78
2022-12-25T17:37:32.370Z,101546.25
2022-12-25T17:39:59.305Z,101532.16
2022-12-25T17:42:26.222Z,101530.34
2022-12-25T17:44:53.201Z,101524.97
2022-12-25T17:47:20.061Z,101517.66
2022-12-25T17:49:47.177Z,101514.31
2022-12-25T17:52:14.016Z,101513.56
2022-12-25T17:54:40.963Z,101518.09
2022-12-25T17:57:07.869Z,101513.63
2022-12-25T17:59:34.802Z,101511.56
2022-12-25T18:02:01.773Z,101516.44
2022-12-25T18:04:28.727Z,101524.63
2022-12-25T18:06:55.717Z,101535.53
2022-12-25T18:09:22.712Z,101533.75
2022-12-25T18:11:49.660Z,101537.38
2022-12-25T18:14:17.207Z,101540.88
2022-12-25T18:16:45.763Z,101537.16
2022-12-25T18:19:14.166Z,101525.81
2022-12-25T18:21:41.491Z,101527.38
2022-12-25T18:24:09.519Z,101538.94
2022-12-25T18:26:38.317Z,101539.91
2022-12-25T18:29:05.390Z,101533.75
2022-12-25T18:31:33.198Z,101539.78
2022-12-25T18:34:00.755Z,101546.59
2022-12-25T18:36:29.209Z,101556.94
2022-12-25T18:38:57.530Z,101557.91
2022-12-25T18:41:24.693Z,101563.06
2022-12-25T18:43:55.509Z,101575.00
2022-12-25T18:46:25.556Z,101578.47
2022-12-25T18:48:56.874Z,101577.41
2022-12-25T18:51:24.599Z,101573.91
2022-12-25T18:53:51.784Z,101580.44
2022-12-25T18:56:20.082Z,101584.00
2022-12-25T18:58:47.601Z,101585.75
2022-12-25T19:01:17.313Z,101582.53
2022-12-25T19:03:45.961Z,101587.63
2022-12-25T19:06:21.721Z,101583.72
2022-12-25T19:08:49.143Z,101588.56
2022-12-25T19:11:16.816Z,101598.19
2022-12-25T19:13:44.464Z,101590.94
2022-12-25T19:16:11.775Z,101589.59
2022-12-25T19:18:39.831Z,101590.81
2022-12-25T19:21:09.164Z,101579.84
2022-12-25T19:23:38.196Z,101574.56
2022-12-25T19:26:07.089Z,101568.16
2022-12-25T19:28:34.421Z,101572.63
2022-12-25T19:31:02.765Z,101583.28
2022-12-25T19:33:31.744Z,101595.00
2022-12-25T19:36:08.209Z,101597.72
2022-12-25T19:38:35.413Z,101598.09
2022-12-25T19:41:10.477Z,101602.00
2022-12-25T19:43:40.373Z,101596.84
2022-12-25T19:46:10.645Z,101596.63
2022-12-25T19:48:37.808Z,101598.78
2022-12-25T19:51:04.818Z,101602.31
2022-12-25T19:53:31.748Z,101611.13
2022-12-25T19:56:02.535Z,101619.56
2022-12-25T19:58:30.215Z,101611.66
2022-12-25T20:01:02.457Z,101609.88
2022-12-25T20:03:29.617Z,101602.28
2022-12-25T20:05:56.691Z,101610.38
2022-12-25T20:08:23.869Z,101610.78
2022-12-25T20:10:51.595Z,101614.59
2022-12-25T20:13:19.496Z,101623.59
2022-12-25T20:15:47.372Z,101627.41
2022-12-25T20:18:14.442Z,101628.41
2022-12-25T20:20:41.359Z,101642.19
2022-12-25T20:23:08.256Z,101647.66
2022-12-25T20:25:40.439Z,101650.03
2022-12-25T20:28:07.510Z,101648.63
2022-12-25T20:30:34.543Z,101651.44
2022-12-25T20:33:01.873Z,101656.94
2022-12-25T20:35:28.728Z,101647.38
2022-12-25T20:37:55.587Z,101647.22
2022-12-25T20:40:22.454Z,101652.59
2022-12-25T20:42:49.332Z,101650.84
2022-12-25T20:45:16.304Z,101652.78
2022-12-25T20:47:43.199Z,101661.94
2022-12-25T20:50:10.276Z,101650.41
2022-12-25T20:52:38.179Z,101671.41
2022-12-25T20:55:05.463Z,101671.59
2022-12-25T20:57:32.648Z,101671.19
2022-12-25T20:59:59.563Z,101685.72
2022-12-25T21:02:34.939Z,101681.56
2022-12-25T21:05:04.623Z,101677.22
2022-12-25T21:07:31.539Z,101690.66
2022-12-25T21:09:59.423Z,101683.25
2022-12-25T21:12:26.393Z,101686.84
2022-12-25T21:14:53.244Z,101687.94
2022-12-25T21:17:20.283Z,101693.72
2022-12-25T21:19:47.185Z,101696.66
2022-12-25T21:22:14.278Z,101698.19
2022-12-25T21:24:41.162Z,101709.75
2022-12-25T21:27:08.888Z,101703.00
2022-12-25T21:29:35.789Z,101707.06
2022-12-25T21:32:21.407Z,101700.41
2022-12-25T21:34:48.285Z,101702.97
2022-12-25T21:37:15.201Z,101696.13
2022-12-25T21:39:42.111Z,101695.69
2022-12-25T21:42:10.692Z,101701.06
2022-12-25T21:44:37.829Z,101695.34
2022-12-25T21:47:04.828Z,101694.50
2022-12-25T21:49:50.165Z,101696.72
2022-12-25T21:52:17.635Z,101697.31
2022-12-25T21:54:44.639Z,101701.91
2022-12-25T21:57:11.584Z,101706.38
2022-12-25T21:59:38.551Z,101696.44
2022-12-25T22:02:11.531Z,101702.94
2022-12-25T22:04:39.067Z,101699.16
2022-12-25T22:07:17.990Z,101704.22
2022-12-25T22:09:48.863Z,101704.13
2022-12-25T22:12:36.868Z,101693.28
2022-12-25T22:15:06.994Z,101693.13
2022-12-25T22:17:53.927Z,101687.00
2022-12-25T22:20:22.504Z,101696.44
2022-12-25T22:22:50.021Z,101692.13
2022-12-25T22:25:18.025Z,101698.38
2022-12-25T22:27:46.882Z,101696.50
2022-12-25T22:30:19.887Z,101704.31
2022-12-25T22:32:47.275Z,101693.63
2022-12-25T22:35:17.046Z,101699.09
2022-12-25T22:37:45.054Z,101698.59
2022-12-25T22:40:15.433Z,101697.59
2022-12-25T22:42:42.508Z,101697.88
2022-12-25T22:45:10.384Z,101693.09
2022-12-25T22:47:37.390Z,101701.53
2022-12-25T22:50:05.200Z,101701.94
2022-12-25T22:52:32.176Z,101711.59
2022-12-25T22:54:59.143Z,101714.13
2022-12-25T22:57:26.036Z,101716.78
2022-12-25T22:59:53.165Z,101716.16
2022-12-25T23:02:20.400Z,101712.28
2022-12-25T23:04:47.736Z,101706.38
2022-12-25T23:07:15.760Z,101711.88
2022-12-25T23:09:43.827Z,101715.81
2022-12-25T23:12:34.136Z,101714.41
2022-12-25T23:15:01.095Z,101719.63
2022-12-25T23:17:46.482Z,101724.16
2022-12-25T23:20:33.576Z,101721.59
2022-12-25T23:23:19.765Z,101726.38
2022-12-25T23:26:05.423Z,101719.94
2022-12-25T23:28:50.989Z,101715.56
2022-12-25T23:31:20.598Z,101721.97
2022-12-25T23:33:47.724Z,101724.84
2022-12-25T23:36:14.631Z,101727.56
2022-12-25T23:38:41.590Z,101730.13
2022-12-25T23:41:08.499Z,101738.66
2022-12-25T23:43:35.394Z,101739.63
2022-12-25T23:46:02.379Z,101741.38
2022-12-25T23:48:29.480Z,101738.69
2022-12-25T23:50:56.691Z,101738.56
2022-12-25T23:53:23.615Z,101743.56
2022-12-25T23:55:55.656Z,101744.91
2022-12-25T23:58:23.093Z,101750.66
